Time;durP1;ratioP1;P1;durP2;ratioP2;P2;SDS_P1;SDS_P2;PMS_P1;PMS_P2;Temp;Humidity;BMP_temperature;BMP_pressure;BME280_temperature;BME280_humidity;BME280_pressure;Samples;Min_cycle;Max_cycle;Signal;HPM_P1;HPM_P2
2021/01/21 00:02:16;;;;;;;4.90;1.40;;;;;11.30;98197.00;;;;10421207;28;20252;-75
2021/01/21 00:07:18;;;;;;;3.27;1.37;;;;;11.30;98163.00;;;;10437482;28;20301;-76
2021/01/21 00:12:19;;;;;;;2.17;1.30;;;;;11.30;98151.00;;;;10437226;28;20197;-76
2021/01/21 00:17:21;;;;;;;1.77;1.50;;;;;11.50;98146.00;;;;10437245;28;20198;-76
2021/01/21 00:22:23;;;;;;;1.43;1.20;;;;;11.50;98095.00;;;;10437356;28;20203;-76
2021/01/21 00:27:25;;;;;;;3.03;1.80;;;;;11.50;98111.00;;;;10455237;28;20197;-76
2021/01/21 00:32:26;;;;;;;1.70;1.20;;;;;11.50;98085.00;;;;10435741;28;20289;-75
2021/01/21 00:37:28;;;;;;;2.80;1.43;;;;;11.60;98109.00;;;;10396458;28;20199;-75
2021/01/21 00:42:29;;;;;;;1.40;1.00;;;;;11.60;98057.00;;;;10413696;28;20222;-75
2021/01/21 00:47:31;;;;;;;1.67;1.50;;;;;11.60;98069.00;;;;10436428;28;20904;-75
2021/01/21 00:52:32;;;;;;;3.37;1.40;;;;;11.60;98033.00;;;;10423310;28;20606;-75
2021/01/21 00:57:34;;;;;;;5.10;1.83;;;;;11.50;98046.00;;;;10428809;28;20281;-75
2021/01/21 01:02:36;;;;;;;3.03;1.47;;;;;11.50;98040.00;;;;10444718;28;20276;-75
2021/01/21 01:07:38;;;;;;;4.77;1.50;;;;;11.50;98044.00;;;;10445453;28;20971;-75
2021/01/21 01:12:39;;;;;;;2.07;1.23;;;;;11.50;98025.00;;;;10444359;28;20182;-75
2021/01/21 01:17:41;;;;;;;2.50;1.23;;;;;11.40;98021.00;;;;10444053;28;20558;-75
2021/01/21 01:22:51;;;;;;;6.23;1.43;;;;;11.50;98007.00;;;;10443964;28;20247;-75
2021/01/21 01:27:52;;;;;;;4.43;1.73;;;;;11.70;98036.00;;;;10461806;28;20198;-75
2021/01/21 01:32:54;;;;;;;4.87;2.27;;;;;11.70;97996.00;;;;10426949;28;20226;-75
2021/01/21 01:37:56;;;;;;;1.43;1.07;;;;;11.70;97999.00;;;;10460740;28;20264;-75
2021/01/21 01:42:59;;;;;;;3.33;1.40;;;;;11.30;98011.00;;;;10425903;28;20216;-75
2021/01/21 01:48:03;;;;;;;1.40;1.23;;;;;11.00;98015.00;;;;10443504;28;20198;-75
2021/01/21 01:53:16;;;;;;;3.43;1.17;;;;;10.90;97997.00;;;;10460658;28;20594;-74
2021/01/21 01:58:24;;;;;;;1.10;1.10;;;;;11.00;97986.00;;;;10426436;28;20340;-75
2021/01/21 02:03:34;;;;;;;3.37;1.17;;;;;11.10;97979.00;;;;10457395;28;20233;-75
2021/01/21 02:09:05;;;;;;;1.80;1.50;;;;;11.00;97983.00;;;;10442130;28;20210;-75
2021/01/21 02:14:16;;;;;;;1.80;1.10;;;;;11.00;98026.00;;;;10442117;28;20199;-75
2021/01/21 02:19:56;;;;;;;2.80;1.30;;;;;10.90;97984.00;;;;10460041;28;20194;-75
2021/01/21 02:25:13;;;;;;;8.93;1.70;;;;;10.90;97971.00;;;;10441962;28;20244;-75
2021/01/21 02:30:26;;;;;;;2.77;1.73;;;;;10.70;97970.00;;;;10442027;28;20194;-75
2021/01/21 02:35:28;;;;;;;4.47;1.27;;;;;10.60;97959.00;;;;10419638;28;20528;-75
2021/01/21 02:40:30;;;;;;;2.20;1.30;;;;;10.40;97989.00;;;;10416353;28;20197;-75
2021/01/21 02:45:40;;;;;;;2.40;1.50;;;;;10.00;97971.00;;;;10442512;28;20312;-75
2021/01/21 02:50:42;;;;;;;3.10;1.40;;;;;9.80;97982.00;;;;10440545;28;20193;-75
2021/01/21 02:55:53;;;;;;;2.87;1.20;;;;;9.60;97972.00;;;;10457228;28;20201;-75
2021/01/21 03:01:02;;;;;;;4.53;2.03;;;;;9.60;97954.00;;;;10439874;28;20225;-75
2021/01/21 03:06:06;;;;;;;3.07;1.10;;;;;9.80;97946.00;;;;10439980;28;20245;-74
2021/01/21 03:11:15;;;;;;;4.77;1.30;;;;;10.10;97951.00;;;;10439287;28;20194;-75
2021/01/21 03:16:31;;;;;;;1.80;1.13;;;;;10.50;97958.00;;;;10438787;28;20198;-74
2021/01/21 03:21:33;;;;;;;2.23;1.40;;;;;10.30;98042.00;;;;10422946;28;20206;-75
2021/01/21 03:26:39;;;;;;;4.80;0.80;;;;;9.00;98198.00;;;;10404471;28;20540;-76
2021/01/21 03:31:50;;;;;;;4.70;0.67;;;;;7.60;98245.00;;;;10397379;28;20222;-74
2021/01/21 03:36:55;;;;;;;1.90;0.80;;;;;7.10;98275.00;;;;10414911;28;20253;-75
2021/01/21 03:41:57;;;;;;;3.30;0.87;;;;;6.80;98296.00;;;;10398574;28;20210;-74
2021/01/21 03:47:17;;;;;;;4.67;0.77;;;;;6.70;98331.00;;;;10454210;28;20209;-75
2021/01/21 03:52:27;;;;;;;3.73;0.60;;;;;6.50;98325.00;;;;10438321;28;20595;-74
2021/01/21 03:57:34;;;;;;;2.83;0.90;;;;;6.30;98320.00;;;;10397757;28;20201;-74
2021/01/21 04:03:02;;;;;;;4.83;0.90;;;;;6.30;98354.00;;;;10413806;28;20222;-74
2021/01/21 04:08:23;;;;;;;3.00;1.00;;;;;6.20;98366.00;;;;10433736;28;20198;-74
2021/01/21 04:13:31;;;;;;;1.70;0.80;;;;;6.10;98372.00;;;;10421809;28;20197;-74
2021/01/21 04:18:43;;;;;;;1.97;0.73;;;;;6.00;98389.00;;;;10454687;28;20684;-74
2021/01/21 04:23:46;;;;;;;2.53;0.73;;;;;5.90;98379.00;;;;10438143;28;20213;-74
2021/01/21 04:28:59;;;;;;;7.67;0.97;;;;;5.80;98424.00;;;;10420524;28;20268;-73
2021/01/21 04:34:02;;;;;;;6.60;1.20;;;;;5.90;98416.00;;;;10409447;28;20191;-73
2021/01/21 04:39:06;;;;;;;3.97;0.70;;;;;5.90;98442.00;;;;10413532;28;20191;-73
2021/01/21 04:44:09;;;;;;;2.60;0.90;;;;;6.00;98463.00;;;;10409311;28;20222;-73
2021/01/21 04:49:32;;;;;;;2.93;0.77;;;;;6.00;98449.00;;;;10424112;28;20499;-73
2021/01/21 04:54:50;;;;;;;2.63;0.90;;;;;6.00;98463.00;;;;10421328;28;20198;-73
2021/01/21 04:59:57;;;;;;;4.97;1.53;;;;;6.00;98471.00;;;;10454791;28;20770;-73
2021/01/21 05:05:22;;;;;;;5.40;1.07;;;;;6.10;98501.00;;;;10438038;28;20265;-73
2021/01/21 05:10:24;;;;;;;5.47;1.83;;;;;6.10;98496.00;;;;10437737;28;20194;-73
2021/01/21 05:15:26;;;;;;;8.63;1.20;;;;;6.10;98487.00;;;;10420558;28;20280;-73
2021/01/21 05:21:02;;;;;;;7.33;1.27;;;;;6.10;98496.00;;;;10444290;28;20183;-73
2021/01/21 05:26:35;;;;;;;3.23;1.00;;;;;5.90;98516.00;;;;10420218;28;20244;-73
2021/01/21 05:31:43;;;;;;;5.57;1.40;;;;;5.80;98525.00;;;;10452791;28;20186;-73
2021/01/21 05:36:46;;;;;;;7.20;1.87;;;;;5.70;98534.00;;;;10453557;28;20187;-73
2021/01/21 05:41:53;;;;;;;10.67;1.87;;;;;5.70;98554.00;;;;10460040;28;20249;-73
2021/01/21 05:47:13;;;;;;;9.37;1.53;;;;;5.70;98557.00;;;;10419562;28;20206;-73
2021/01/21 05:52:15;;;;;;;6.40;1.73;;;;;5.70;98575.00;;;;10386023;28;20199;-74
2021/01/21 05:57:19;;;;;;;7.73;1.60;;;;;5.70;98596.00;;;;10419051;28;20272;-74
2021/01/21 06:02:22;;;;;;;6.53;1.20;;;;;5.70;98592.00;;;;10401497;28;20223;-73
2021/01/21 06:07:31;;;;;;;14.40;2.23;;;;;5.80;98608.00;;;;10402391;28;20222;-73
2021/01/21 06:12:32;;;;;;;8.37;1.90;;;;;5.80;98615.00;;;;10419612;28;20191;-74
2021/01/21 06:17:34;;;;;;;5.37;1.63;;;;;5.70;98614.00;;;;10442304;28;20281;-73
2021/01/21 06:23:16;;;;;;;12.77;1.83;;;;;5.80;98618.00;;;;10316895;28;20212;-74
2021/01/21 06:28:34;;;;;;;7.63;1.97;;;;;5.80;98629.00;;;;10422139;28;20202;-74
2021/01/21 06:33:38;;;;;;;14.07;1.90;;;;;5.80;98635.00;;;;10441597;28;20228;-74
2021/01/21 06:38:42;;;;;;;7.53;1.43;;;;;5.80;98639.00;;;;10458815;28;20190;-74
2021/01/21 06:43:44;;;;;;;11.53;2.60;;;;;5.80;98652.00;;;;10441441;28;20240;-74
2021/01/21 06:48:48;;;;;;;9.27;1.70;;;;;5.70;98643.00;;;;10440727;28;20202;-74
2021/01/21 06:53:54;;;;;;;14.90;2.00;;;;;5.70;98664.00;;;;10441519;28;20209;-74
2021/01/21 06:58:55;;;;;;;7.27;1.50;;;;;5.60;98663.00;;;;10441127;28;20206;-74
2021/01/21 07:04:21;;;;;;;12.43;2.03;;;;;5.50;98676.00;;;;10440610;28;20214;-74
2021/01/21 07:09:27;;;;;;;7.87;1.63;;;;;5.60;98694.00;;;;10456853;28;20182;-73
2021/01/21 07:14:31;;;;;;;11.50;1.93;;;;;5.80;98703.00;;;;10424902;28;20206;-74
2021/01/21 07:19:47;;;;;;;9.60;1.67;;;;;5.90;98712.00;;;;10399407;28;20183;-74
2021/01/21 07:24:57;;;;;;;9.80;1.83;;;;;5.90;98712.00;;;;10398675;28;20210;-74
2021/01/21 07:30:19;;;;;;;9.20;2.00;;;;;6.00;98730.00;;;;10382228;28;20241;-74
2021/01/21 07:35:32;;;;;;;7.23;2.33;;;;;6.10;98738.00;;;;10416444;28;20583;-74
2021/01/21 07:40:43;;;;;;;11.83;2.43;;;;;6.20;98740.00;;;;10415168;28;20198;-74
2021/01/21 07:45:45;;;;;;;8.40;2.50;;;;;6.10;98742.00;;;;10403244;28;20219;-75
2021/01/21 07:50:47;;;;;;;10.13;2.20;;;;;6.20;98744.00;;;;10397811;28;20225;-74
2021/01/21 07:55:50;;;;;;;9.03;1.63;;;;;6.20;98759.00;;;;10398381;28;20187;-74
2021/01/21 08:00:53;;;;;;;8.30;1.57;;;;;6.20;98764.00;;;;10381081;28;20206;-74
2021/01/21 08:06:22;;;;;;;5.30;1.80;;;;;6.30;98772.00;;;;10386666;28;20217;-75
2021/01/21 08:11:25;;;;;;;8.17;1.70;;;;;6.40;98772.00;;;;10414733;28;20869;-74
2021/01/21 08:16:30;;;;;;;6.53;1.40;;;;;6.50;98769.00;;;;10398090;28;20194;-74
2021/01/21 08:21:31;;;;;;;5.63;1.87;;;;;6.50;98769.00;;;;10414532;28;20198;-75
2021/01/21 08:26:33;;;;;;;7.83;2.00;;;;;6.60;98775.00;;;;10380841;28;20198;-75
2021/01/21 08:31:43;;;;;;;8.47;1.97;;;;;6.60;98791.00;;;;10413751;28;20205;-75
2021/01/21 08:36:45;;;;;;;7.87;1.50;;;;;6.80;98785.00;;;;10417435;28;20198;-75
2021/01/21 08:41:50;;;;;;;6.37;1.50;;;;;7.00;98804.00;;;;10455934;28;20264;-75
2021/01/21 08:46:58;;;;;;;5.17;1.47;;;;;7.30;98808.00;;;;10418143;28;20617;-74
2021/01/21 08:52:09;;;;;;;3.70;1.63;;;;;7.40;98800.00;;;;10380326;28;20249;-76
2021/01/21 08:57:14;;;;;;;5.73;1.30;;;;;7.30;98803.00;;;;10396122;28;20654;-75
2021/01/21 09:02:39;;;;;;;10.57;2.10;;;;;7.70;98811.00;;;;10395765;28;20226;-75
2021/01/21 09:07:40;;;;;;;6.80;1.40;;;;;7.70;98825.00;;;;10394626;28;20561;-75
2021/01/21 09:12:42;;;;;;;3.57;1.63;;;;;7.70;98822.00;;;;10421602;28;20186;-75
2021/01/21 09:17:44;;;;;;;5.67;1.87;;;;;7.90;98819.00;;;;10444893;28;20198;-75
2021/01/21 09:22:46;;;;;;;5.60;1.87;;;;;7.70;98814.00;;;;10444713;28;20214;-75
2021/01/21 09:27:55;;;;;;;8.50;2.40;;;;;7.70;98822.00;;;;10445273;28;20202;-75
2021/01/21 09:32:56;;;;;;;6.00;2.00;;;;;7.80;98818.00;;;;10444488;28;20572;-75
2021/01/21 09:37:59;;;;;;;6.67;1.73;;;;;8.40;98824.00;;;;10444213;28;20198;-76
2021/01/21 09:43:04;;;;;;;3.10;1.30;;;;;8.80;98827.00;;;;10440000;28;20258;-75
2021/01/21 09:48:06;;;;;;;7.60;1.60;;;;;9.10;98842.00;;;;10402697;28;20249;-75
2021/01/21 09:53:08;;;;;;;7.77;1.70;;;;;9.00;98826.00;;;;10402612;28;20890;-75
2021/01/21 09:58:09;;;;;;;8.37;2.03;;;;;8.80;98831.00;;;;10402259;28;20225;-75
2021/01/21 10:03:12;;;;;;;6.10;1.77;;;;;8.80;98829.00;;;;10419885;28;20215;-75
2021/01/21 10:08:13;;;;;;;6.10;1.83;;;;;8.80;98844.00;;;;10437717;28;20194;-76
2021/01/21 10:13:14;;;;;;;4.37;1.40;;;;;8.80;98855.00;;;;10426302;28;20280;-76
2021/01/21 10:18:16;;;;;;;4.77;1.67;;;;;8.80;98844.00;;;;10442612;28;20194;-75
2021/01/21 10:23:17;;;;;;;6.80;1.30;;;;;9.00;98855.00;;;;10459384;28;20244;-76
2021/01/21 10:28:19;;;;;;;3.47;1.80;;;;;9.10;98871.00;;;;10425756;28;20234;-75
2021/01/21 10:33:20;;;;;;;6.37;1.53;;;;;9.40;98858.00;;;;10419267;28;20593;-76
2021/01/21 10:38:22;;;;;;;4.53;1.67;;;;;9.30;98867.00;;;;10368489;28;20222;-76
2021/01/21 10:43:23;;;;;;;9.00;1.73;;;;;9.20;98871.00;;;;10408003;28;20254;-75
2021/01/21 10:48:25;;;;;;;5.70;1.60;;;;;9.20;98865.00;;;;10459911;28;20542;-76
2021/01/21 10:53:26;;;;;;;6.80;1.77;;;;;9.20;98858.00;;;;10459449;28;20191;-76
2021/01/21 10:58:27;;;;;;;3.40;1.27;;;;;9.30;98864.00;;;;10459496;28;20244;-76
2021/01/21 11:03:29;;;;;;;4.60;1.13;;;;;9.30;98855.00;;;;10441113;28;20272;-76
2021/01/21 11:08:30;;;;;;;5.80;1.47;;;;;9.40;98869.00;;;;10441862;28;20523;-76
2021/01/21 11:13:32;;;;;;;3.40;1.37;;;;;9.40;98870.00;;;;10442233;28;20198;-75
2021/01/21 11:18:33;;;;;;;4.30;1.60;;;;;9.50;98869.00;;;;10440239;28;20190;-75
2021/01/21 11:23:35;;;;;;;5.53;1.50;;;;;9.50;98875.00;;;;10457642;28;20260;-75
2021/01/21 11:28:37;;;;;;;11.13;1.70;;;;;9.50;98864.00;;;;10423649;28;20608;-75
2021/01/21 11:33:40;;;;;;;6.43;1.57;;;;;9.50;98859.00;;;;10457151;28;20186;-75
2021/01/21 11:38:41;;;;;;;5.80;1.10;;;;;9.50;98838.00;;;;10440054;28;20561;-75
2021/01/21 11:43:43;;;;;;;6.20;1.97;;;;;9.50;98859.00;;;;10429862;28;20231;-75
2021/01/21 11:48:44;;;;;;;9.07;2.30;;;;;9.50;98852.00;;;;10414505;28;20187;-75
2021/01/21 11:53:46;;;;;;;5.07;1.43;;;;;9.50;98844.00;;;;10381983;28;20222;-75
2021/01/21 11:58:47;;;;;;;5.43;1.53;;;;;9.60;98840.00;;;;10414586;28;20576;-75
2021/01/21 12:03:49;;;;;;;4.27;1.43;;;;;9.70;98827.00;;;;10397882;28;20272;-74
2021/01/21 12:08:50;;;;;;;2.90;1.43;;;;;9.80;98833.00;;;;10397693;28;20704;-75
2021/01/21 12:13:51;;;;;;;5.80;1.70;;;;;9.60;98828.00;;;;10415905;28;20194;-75
2021/01/21 12:18:54;;;;;;;6.77;1.57;;;;;9.70;98817.00;;;;10397918;28;20201;-75
2021/01/21 12:23:56;;;;;;;7.80;1.60;;;;;10.00;98822.00;;;;10397162;28;20327;-74
2021/01/21 12:28:57;;;;;;;5.13;1.67;;;;;10.00;98821.00;;;;10430409;28;20206;-75
2021/01/21 12:33:58;;;;;;;5.27;1.83;;;;;10.20;98802.00;;;;10397401;28;20175;-75
2021/01/21 12:39:01;;;;;;;6.93;1.70;;;;;10.10;98800.00;;;;10364699;28;20591;-75
2021/01/21 12:44:03;;;;;;;3.97;1.50;;;;;10.20;98793.00;;;;10419149;28;20215;-75
2021/01/21 12:49:05;;;;;;;4.67;1.30;;;;;10.50;98780.00;;;;10400213;28;20281;-75
2021/01/21 12:54:06;;;;;;;4.10;1.17;;;;;10.50;98770.00;;;;10372007;28;20252;-75
2021/01/21 12:59:08;;;;;;;5.30;1.90;;;;;10.70;98779.00;;;;10405401;28;20613;-75
2021/01/21 13:04:09;;;;;;;3.57;1.30;;;;;10.80;98766.00;;;;10404269;28;20214;-75
2021/01/21 13:09:10;;;;;;;6.20;1.50;;;;;10.50;98750.00;;;;10449542;28;20240;-75
2021/01/21 13:14:12;;;;;;;4.50;2.10;;;;;10.60;98744.00;;;;10445792;28;20256;-75
2021/01/21 13:19:15;;;;;;;10.50;1.70;;;;;10.80;98750.00;;;;10446116;28;20214;-75
2021/01/21 13:24:16;;;;;;;5.67;1.60;;;;;10.60;98745.00;;;;10404957;28;20257;-76
2021/01/21 13:29:20;;;;;;;9.93;2.03;;;;;11.00;98750.00;;;;10404343;28;20310;-76
2021/01/21 13:34:23;;;;;;;5.90;2.00;;;;;11.40;98745.00;;;;10421746;28;20242;-74
2021/01/21 13:39:24;;;;;;;5.43;1.63;;;;;11.10;98757.00;;;;10402863;28;20187;-76
2021/01/21 13:44:26;;;;;;;8.13;2.30;;;;;10.90;98762.00;;;;10404881;28;20269;-74
2021/01/21 13:49:28;;;;;;;4.27;1.73;;;;;10.40;98753.00;;;;10405435;28;20237;-74
2021/01/21 13:54:29;;;;;;;8.07;1.90;;;;;9.90;98753.00;;;;10460471;28;20225;-76
2021/01/21 13:59:31;;;;;;;3.33;1.60;;;;;9.70;98759.00;;;;10426756;28;20198;-76
2021/01/21 14:04:32;;;;;;;6.77;1.80;;;;;9.60;98753.00;;;;10443029;28;20218;-76
2021/01/21 14:09:33;;;;;;;6.03;1.70;;;;;9.40;98747.00;;;;10443264;28;20641;-76
2021/01/21 14:14:35;;;;;;;8.73;2.03;;;;;9.30;98749.00;;;;10442984;28;20254;-76
2021/01/21 14:19:37;;;;;;;8.83;2.13;;;;;9.30;98751.00;;;;10402140;28;20221;-76
2021/01/21 14:24:39;;;;;;;6.50;1.60;;;;;9.20;98738.00;;;;10401522;28;20293;-76
2021/01/21 14:29:45;;;;;;;5.90;2.17;;;;;9.10;98735.00;;;;10402147;28;20194;-75
2021/01/21 14:34:47;;;;;;;5.83;1.97;;;;;9.10;98719.00;;;;10401651;28;20594;-76
2021/01/21 14:39:49;;;;;;;2.77;1.00;;;;;9.10;98718.00;;;;10401243;28;20195;-76
2021/01/21 14:44:51;;;;;;;12.07;1.53;;;;;9.10;98717.00;;;;10400989;28;20226;-76
2021/01/21 14:49:54;;;;;;;7.63;1.80;;;;;9.10;98698.00;;;;10384346;28;20198;-76
2021/01/21 14:54:55;;;;;;;9.17;1.60;;;;;9.00;98697.00;;;;10399820;28;20191;-76
2021/01/21 14:59:57;;;;;;;6.27;1.60;;;;;8.90;98703.00;;;;10434954;28;20194;-76
2021/01/21 15:04:58;;;;;;;10.80;2.40;;;;;8.90;98682.00;;;;10407498;28;21157;-75
2021/01/21 15:10:08;;;;;;;4.20;1.43;;;;;8.80;98691.00;;;;10402672;28;20289;-76
2021/01/21 15:15:09;;;;;;;14.83;1.90;;;;;8.80;98689.00;;;;10427694;28;20704;-76
2021/01/21 15:20:11;;;;;;;7.70;1.70;;;;;8.70;98668.00;;;;10440334;28;20205;-75
2021/01/21 15:25:13;;;;;;;7.23;1.90;;;;;8.70;98673.00;;;;10457657;28;20712;-77
2021/01/21 15:30:15;;;;;;;9.00;1.60;;;;;8.70;98680.00;;;;10408851;28;20198;-77
2021/01/21 15:35:16;;;;;;;10.07;1.57;;;;;8.60;98671.00;;;;10439563;28;20229;-77
2021/01/21 15:40:17;;;;;;;8.53;1.80;;;;;8.60;98656.00;;;;10456290;28;20240;-77
2021/01/21 15:45:19;;;;;;;6.87;1.43;;;;;8.50;98661.00;;;;10453468;28;20281;-77
2021/01/21 15:50:20;;;;;;;10.30;1.80;;;;;8.50;98656.00;;;;10422564;28;20673;-77
2021/01/21 15:55:22;;;;;;;12.63;1.90;;;;;8.40;98651.00;;;;10439679;28;20198;-77
2021/01/21 16:00:24;;;;;;;5.13;1.30;;;;;8.40;98634.00;;;;10445042;28;20585;-76
2021/01/21 16:05:30;;;;;;;6.63;1.77;;;;;8.20;98635.00;;;;10452798;28;20218;-76
2021/01/21 16:10:32;;;;;;;4.77;1.40;;;;;8.10;98639.00;;;;10439212;28;20193;-77
2021/01/21 16:15:33;;;;;;;8.03;1.83;;;;;7.80;98628.00;;;;10430905;28;20646;-76
2021/01/21 16:20:35;;;;;;;6.77;1.70;;;;;7.50;98619.00;;;;10410558;28;20198;-76
2021/01/21 16:25:37;;;;;;;7.87;1.40;;;;;7.30;98601.00;;;;10421592;28;20717;-76
2021/01/21 16:30:38;;;;;;;11.50;2.40;;;;;7.10;98593.00;;;;10432425;28;20181;-76
2021/01/21 16:35:40;;;;;;;4.17;1.47;;;;;7.10;98569.00;;;;10430131;28;20201;-76
2021/01/21 16:40:41;;;;;;;7.60;1.80;;;;;7.00;98568.00;;;;10421212;28;20206;-76
2021/01/21 16:45:42;;;;;;;8.13;2.90;;;;;7.00;98555.00;;;;10437585;28;20251;-76
2021/01/21 16:50:49;;;;;;;9.00;1.80;;;;;7.00;98549.00;;;;10436543;28;20661;-76
2021/01/21 16:55:51;;;;;;;9.37;1.80;;;;;6.90;98546.00;;;;10423800;28;20502;-76
2021/01/21 17:00:53;;;;;;;9.70;2.20;;;;;7.00;98535.00;;;;10440065;28;20206;-76
2021/01/21 17:05:54;;;;;;;9.70;1.83;;;;;6.90;98512.00;;;;10438911;28;20210;-76
2021/01/21 17:10:55;;;;;;;12.57;3.13;;;;;6.90;98495.00;;;;10436165;28;20190;-76
2021/01/21 17:15:57;;;;;;;8.77;1.97;;;;;6.80;98477.00;;;;10430263;28;20194;-76
2021/01/21 17:20:58;;;;;;;12.00;2.83;;;;;6.80;98469.00;;;;10437623;28;20276;-76
2021/01/21 17:25:59;;;;;;;11.03;2.33;;;;;6.70;98456.00;;;;10425736;28;20211;-77
2021/01/21 17:31:02;;;;;;;13.20;3.53;;;;;6.70;98427.00;;;;10412843;28;20190;-76
2021/01/21 17:36:04;;;;;;;12.73;3.47;;;;;6.60;98411.00;;;;10428004;28;20198;-76
2021/01/21 17:41:05;;;;;;;18.33;4.27;;;;;6.60;98396.00;;;;10462523;28;20534;-76
2021/01/21 17:46:06;;;;;;;14.20;3.23;;;;;6.60;98360.00;;;;10461027;28;20280;-75
2021/01/21 17:51:08;;;;;;;11.93;2.80;;;;;6.50;98337.00;;;;10460931;28;20198;-75
2021/01/21 17:56:09;;;;;;;11.93;3.17;;;;;6.50;98295.00;;;;10431758;28;20596;-75
2021/01/21 18:01:11;;;;;;;13.20;3.57;;;;;6.40;98266.00;;;;10427294;28;20268;-75
2021/01/21 18:06:12;;;;;;;8.13;3.00;;;;;6.40;98244.00;;;;10417859;28;20293;-75
2021/01/21 18:11:14;;;;;;;13.57;2.83;;;;;6.30;98222.00;;;;10448127;28;20234;-75
2021/01/21 18:16:16;;;;;;;14.83;3.10;;;;;6.30;98192.00;;;;10443305;28;20254;-75
2021/01/21 18:21:33;;;;;;;9.60;3.40;;;;;6.30;98172.00;;;;10440144;28;20248;-75
2021/01/21 18:26:36;;;;;;;20.80;4.30;;;;;6.20;98148.00;;;;10459718;28;20222;-75
2021/01/21 18:31:37;;;;;;;20.77;9.53;;;;;6.30;98147.00;;;;10419908;28;20237;-75
2021/01/21 18:36:39;;;;;;;19.13;8.30;;;;;6.30;98138.00;;;;10404345;28;20557;-75
2021/01/21 18:41:40;;;;;;;14.20;3.40;;;;;6.30;98104.00;;;;10440956;28;20202;-74
2021/01/21 18:46:42;;;;;;;16.60;8.70;;;;;6.40;98112.00;;;;10458434;28;20225;-75
2021/01/21 18:51:44;;;;;;;13.37;3.37;;;;;6.50;98098.00;;;;10433566;28;20222;-75
2021/01/21 18:56:45;;;;;;;8.23;3.03;;;;;6.50;98084.00;;;;10440751;28;20210;-75
2021/01/21 19:01:47;;;;;;;7.30;3.37;;;;;6.60;98065.00;;;;10423824;28;20203;-74
2021/01/21 19:06:49;;;;;;;4.40;2.07;;;;;6.80;98042.00;;;;10439228;28;20214;-75
2021/01/21 19:11:50;;;;;;;5.80;1.57;;;;;7.00;98021.00;;;;10437719;28;20185;-75
2021/01/21 19:16:51;;;;;;;5.40;2.07;;;;;7.10;98003.00;;;;10456464;28;20598;-75
2021/01/21 19:21:53;;;;;;;7.87;2.60;;;;;7.20;97977.00;;;;10456700;28;20199;-75
2021/01/21 19:26:55;;;;;;;3.33;1.20;;;;;7.40;97968.00;;;;10417459;28;20720;-74
2021/01/21 19:31:57;;;;;;;1.20;0.87;;;;;7.60;97965.00;;;;10439823;28;20190;-75
2021/01/21 19:36:58;;;;;;;1.83;0.63;;;;;7.80;97941.00;;;;10438850;28;20186;-74
2021/01/21 19:42:01;;;;;;;0.70;0.70;;;;;8.00;97938.00;;;;10437979;28;20198;-75
2021/01/21 19:47:04;;;;;;;0.70;0.63;;;;;8.10;97912.00;;;;10411087;28;20305;-75
2021/01/21 19:52:05;;;;;;;1.87;1.00;;;;;8.20;97913.00;;;;10455430;28;20190;-75
2021/01/21 19:57:11;;;;;;;1.23;0.83;;;;;8.40;97901.00;;;;10413855;28;20229;-75
2021/01/21 20:02:12;;;;;;;2.03;0.77;;;;;8.50;97895.00;;;;10424304;28;20202;-75
2021/01/21 20:07:14;;;;;;;1.07;0.40;;;;;8.50;97884.00;;;;10447480;28;20198;-75
2021/01/21 20:12:15;;;;;;;1.47;0.77;;;;;8.70;97879.00;;;;10423240;28;20198;-74
2021/01/21 20:17:17;;;;;;;0.50;0.50;;;;;8.70;97884.00;;;;10419360;28;20206;-75
2021/01/21 20:22:18;;;;;;;0.60;0.50;;;;;8.60;97897.00;;;;10437350;28;20198;-75
2021/01/21 20:27:20;;;;;;;2.40;0.80;;;;;8.60;97877.00;;;;10419636;28;20198;-75
2021/01/21 20:32:21;;;;;;;3.03;0.70;;;;;8.60;97872.00;;;;10419516;28;20201;-75
2021/01/21 20:37:23;;;;;;;2.20;0.80;;;;;8.60;97869.00;;;;10409280;28;20198;-74
2021/01/21 20:42:25;;;;;;;3.70;0.77;;;;;8.60;97860.00;;;;10417808;28;20234;-74
2021/01/21 20:47:26;;;;;;;1.00;0.83;;;;;8.60;97870.00;;;;10437201;28;20203;-74
2021/01/21 20:52:31;;;;;;;3.13;1.50;;;;;8.60;97873.00;;;;10414765;28;20206;-74
2021/01/21 20:57:33;;;;;;;2.63;1.20;;;;;8.60;97856.00;;;;10414995;28;20197;-74
2021/01/21 21:02:36;;;;;;;5.90;1.80;;;;;8.50;97856.00;;;;10420066;28;20222;-74
2021/01/21 21:07:38;;;;;;;5.03;1.70;;;;;8.50;97848.00;;;;10422429;28;20206;-74
2021/01/21 21:12:40;;;;;;;3.80;1.07;;;;;8.60;97848.00;;;;10413994;28;20198;-74
2021/01/21 21:17:42;;;;;;;5.00;2.07;;;;;8.80;97849.00;;;;10461653;28;20198;-74
2021/01/21 21:22:45;;;;;;;5.90;1.90;;;;;8.80;97854.00;;;;10428278;28;20237;-74
2021/01/21 21:27:46;;;;;;;5.23;1.60;;;;;8.70;97862.00;;;;10434393;28;20194;-74
2021/01/21 21:32:47;;;;;;;8.30;1.60;;;;;8.60;97856.00;;;;10444231;28;20186;-75
2021/01/21 21:37:49;;;;;;;7.80;1.63;;;;;8.60;97847.00;;;;10416408;28;20202;-74
2021/01/21 21:42:50;;;;;;;10.00;1.60;;;;;8.60;97840.00;;;;10436377;28;20269;-74
2021/01/21 21:47:52;;;;;;;4.93;1.40;;;;;8.50;97840.00;;;;10459785;28;20190;-74
2021/01/21 21:52:53;;;;;;;3.17;1.03;;;;;8.50;97839.00;;;;10447391;28;20213;-74
2021/01/21 21:57:55;;;;;;;5.87;1.33;;;;;8.50;97842.00;;;;10461248;28;20240;-75
2021/01/21 22:02:56;;;;;;;5.53;1.43;;;;;8.50;97847.00;;;;10435990;28;20613;-75
2021/01/21 22:07:58;;;;;;;3.47;1.20;;;;;8.50;97845.00;;;;10429966;28;20250;-74
2021/01/21 22:12:59;;;;;;;5.57;1.40;;;;;8.50;97855.00;;;;10438316;28;20650;-74
2021/01/21 22:18:03;;;;;;;2.30;1.13;;;;;8.50;97854.00;;;;10442564;28;20187;-75
2021/01/21 22:23:05;;;;;;;3.30;1.13;;;;;8.50;97840.00;;;;10441499;28;20752;-75
2021/01/21 22:28:06;;;;;;;5.43;1.10;;;;;8.40;97845.00;;;;10412408;28;20225;-74
2021/01/21 22:33:08;;;;;;;2.90;1.33;;;;;8.40;97852.00;;;;10408543;28;20190;-74
2021/01/21 22:38:10;;;;;;;4.83;1.20;;;;;8.40;97833.00;;;;10420520;28;20190;-74
2021/01/21 22:43:12;;;;;;;4.00;1.00;;;;;8.40;97830.00;;;;10457953;28;20557;-75
2021/01/21 22:48:13;;;;;;;3.63;1.40;;;;;8.40;97831.00;;;;10410325;28;20229;-75
2021/01/21 22:53:15;;;;;;;4.03;1.27;;;;;8.30;97822.00;;;;10441321;28;20206;-74
2021/01/21 22:58:16;;;;;;;1.33;0.80;;;;;8.30;97813.00;;;;10455282;28;20293;-74
2021/01/21 23:03:18;;;;;;;2.33;0.83;;;;;8.30;97814.00;;;;10411468;28;20221;-75
2021/01/21 23:08:19;;;;;;;1.87;0.60;;;;;8.20;97886.00;;;;10393399;28;20733;-75
2021/01/21 23:13:21;;;;;;;3.20;2.90;;;;;7.60;97912.00;;;;10431470;28;20614;-75
2021/01/21 23:18:22;;;;;;;7.43;4.07;;;;;7.00;97936.00;;;;10423972;28;20198;-75
2021/01/21 23:23:23;;;;;;;3.67;3.30;;;;;6.50;97974.00;;;;10413003;28;20722;-75
2021/01/21 23:28:25;;;;;;;7.53;5.43;;;;;6.10;97987.00;;;;10422486;28;20234;-75
2021/01/21 23:33:27;;;;;;;9.27;7.00;;;;;5.90;98001.00;;;;10400414;28;20270;-75
2021/01/21 23:38:28;;;;;;;9.10;6.37;;;;;5.70;98015.00;;;;10429925;28;20653;-74
2021/01/21 23:43:31;;;;;;;9.00;6.73;;;;;5.50;98043.00;;;;10438332;28;20229;-75
2021/01/21 23:48:32;;;;;;;10.73;8.13;;;;;5.40;98073.00;;;;10442112;28;20650;-74
2021/01/21 23:53:34;;;;;;;8.80;4.60;;;;;5.20;98091.00;;;;10408767;28;20194;-75
2021/01/21 23:58:36;;;;;;;2.90;2.60;;;;;4.90;98105.00;;;;10455714;28;20197;-74
